createdAt,value
2023-06-17T00:02:04.662Z,14.51
2023-06-17T00:07:08.613Z,14.54
2023-06-17T00:12:13.584Z,14.60
2023-06-17T00:17:17.765Z,14.62
2023-06-17T00:22:21.305Z,14.52
2023-06-17T00:27:24.915Z,14.39
2023-06-17T00:32:29.679Z,14.37
2023-06-17T00:37:34.014Z,14.20
2023-06-17T00:42:37.950Z,14.20
2023-06-17T00:47:42.800Z,14.11
2023-06-17T00:52:47.250Z,14.07
2023-06-17T00:57:52.239Z,14.13
2023-06-17T01:02:57.897Z,14.09
2023-06-17T01:08:32.416Z,14.04
2023-06-17T01:13:36.930Z,14.06
2023-06-17T01:18:41.940Z,14.05
2023-06-17T01:23:54.111Z,14.23
2023-06-17T01:29:01.247Z,14.25
2023-06-17T01:34:06.134Z,14.30
2023-06-17T01:39:14.845Z,14.23
2023-06-17T01:44:20.851Z,14.19
2023-06-17T01:49:24.468Z,14.18
2023-06-17T01:54:28.955Z,14.10
2023-06-17T01:59:32.794Z,13.97
2023-06-17T02:04:36.547Z,13.93
2023-06-17T02:09:40.168Z,13.84
2023-06-17T02:14:43.765Z,13.75
2023-06-17T02:19:47.367Z,13.70
2023-06-17T02:24:50.897Z,13.61
2023-06-17T02:29:54.449Z,13.53
2023-06-17T02:34:58.741Z,13.48
2023-06-17T02:40:02.665Z,13.60
2023-06-17T02:45:08.410Z,13.61
2023-06-17T02:50:12.105Z,13.58
2023-06-17T02:55:16.684Z,13.56
2023-06-17T03:00:22.103Z,13.61
2023-06-17T03:05:25.898Z,13.58
2023-06-17T03:10:29.518Z,13.60
2023-06-17T03:15:33.080Z,13.52
2023-06-17T03:20:39.278Z,13.55
2023-06-17T03:25:44.069Z,13.65
2023-06-17T03:30:47.806Z,13.62
2023-06-17T03:35:51.491Z,13.66
2023-06-17T03:40:55.000Z,13.81
2023-06-17T03:45:58.533Z,13.86
2023-06-17T03:51:03.336Z,13.97
2023-06-17T03:56:07.498Z,14.22
2023-06-17T04:01:14.087Z,14.35
2023-06-17T04:06:18.108Z,14.48
2023-06-17T04:11:21.526Z,14.66
2023-06-17T04:16:24.948Z,14.77
2023-06-17T04:21:29.446Z,15.08
2023-06-17T04:26:33.587Z,15.26
2023-06-17T04:31:41.277Z,15.49
2023-06-17T04:36:44.928Z,15.68
2023-06-17T04:41:48.647Z,15.89
2023-06-17T04:46:52.248Z,16.14
2023-06-17T04:51:57.280Z,16.31
2023-06-17T04:57:01.252Z,16.47
2023-06-17T05:02:05.197Z,16.62
2023-06-17T05:07:09.315Z,16.74
2023-06-17T05:12:12.694Z,16.96
2023-06-17T05:17:16.347Z,17.11
2023-06-17T05:22:20.117Z,17.35
2023-06-17T05:27:24.927Z,17.51
2023-06-17T05:32:28.547Z,17.74
2023-06-17T05:37:33.106Z,17.78
2023-06-17T05:42:37.255Z,17.82
2023-06-17T05:47:40.915Z,17.77
2023-06-17T05:52:46.756Z,17.80
2023-06-17T05:57:52.930Z,17.91
2023-06-17T06:02:58.521Z,18.00
2023-06-17T06:08:02.087Z,17.99
2023-06-17T06:13:06.290Z,18.10
2023-06-17T06:18:09.842Z,18.07
2023-06-17T06:23:13.267Z,18.11
2023-06-17T06:28:16.825Z,18.27
2023-06-17T06:33:20.678Z,18.41
2023-06-17T06:38:24.312Z,18.57
2023-06-17T06:43:27.640Z,18.56
2023-06-17T06:48:31.763Z,18.80
2023-06-17T06:53:35.959Z,18.94
2023-06-17T06:58:39.453Z,19.13
2023-06-17T07:03:43.201Z,19.27
2023-06-17T07:08:46.830Z,19.39
2023-06-17T07:13:50.596Z,19.58
2023-06-17T07:18:54.339Z,19.75
2023-06-17T07:23:57.903Z,19.81
2023-06-17T07:29:02.796Z,19.94
2023-06-17T07:34:06.258Z,19.96
2023-06-17T07:39:09.898Z,20.47
2023-06-17T07:44:13.738Z,20.70
2023-06-17T07:49:17.267Z,20.82
2023-06-17T07:54:20.998Z,21.07
2023-06-17T07:59:24.598Z,21.29
2023-06-17T08:04:28.174Z,21.61
2023-06-17T08:09:31.935Z,21.74
2023-06-17T08:14:35.886Z,21.90
2023-06-17T08:19:39.444Z,22.17
2023-06-17T08:24:43.291Z,22.24
2023-06-17T08:29:46.747Z,22.44
2023-06-17T08:34:50.676Z,22.39
2023-06-17T08:39:54.063Z,22.27
2023-06-17T08:45:04.022Z,22.11
2023-06-17T08:50:08.581Z,21.95
2023-06-17T08:55:12.452Z,22.02
2023-06-17T09:00:16.958Z,22.06
2023-06-17T09:05:20.392Z,22.14
2023-06-17T09:10:24.182Z,22.13
2023-06-17T09:15:27.816Z,22.23
2023-06-17T09:20:33.921Z,22.24
2023-06-17T09:25:37.775Z,22.36
2023-06-17T09:30:43.908Z,22.55
2023-06-17T09:35:48.860Z,22.74
2023-06-17T09:40:53.790Z,22.75
2023-06-17T09:46:01.215Z,22.80
2023-06-17T09:51:10.571Z,22.95
2023-06-17T09:56:15.122Z,23.05
2023-06-17T10:01:18.990Z,23.11
2023-06-17T10:06:24.957Z,23.23
2023-06-17T10:11:30.536Z,23.35
2023-06-17T10:16:39.893Z,23.50
2023-06-17T10:21:47.918Z,23.50
2023-06-17T10:26:53.035Z,23.49
2023-06-17T10:31:56.592Z,23.44
2023-06-17T10:37:02.202Z,23.58
2023-06-17T10:42:14.643Z,23.60
2023-06-17T10:47:23.593Z,23.56
2023-06-17T10:52:31.423Z,23.47
2023-06-17T10:57:37.873Z,23.55
2023-06-17T11:02:41.850Z,23.54
2023-06-17T11:07:45.717Z,23.67
2023-06-17T11:12:51.189Z,23.82
2023-06-17T11:18:04.879Z,24.04
2023-06-17T11:23:08.790Z,24.09
2023-06-17T11:28:13.059Z,24.16
2023-06-17T11:33:21.527Z,24.35
2023-06-17T11:38:25.891Z,24.65
2023-06-17T11:43:30.126Z,24.68
2023-06-17T11:48:37.638Z,24.56
2023-06-17T11:53:41.235Z,24.45
2023-06-17T11:58:46.145Z,24.59
2023-06-17T12:03:49.748Z,24.83
2023-06-17T12:09:07.276Z,25.11
2023-06-17T12:14:13.875Z,25.01
2023-06-17T12:19:25.401Z,25.02
2023-06-17T12:24:29.206Z,25.04
2023-06-17T12:29:32.700Z,25.07
2023-06-17T12:34:36.473Z,25.07
2023-06-17T12:39:40.944Z,24.96
2023-06-17T12:44:45.998Z,24.92
2023-06-17T12:49:50.743Z,25.29
2023-06-17T12:55:02.140Z,25.56
2023-06-17T13:00:07.522Z,25.66
2023-06-17T13:05:11.366Z,25.43
2023-06-17T13:10:14.999Z,25.36
2023-06-17T13:15:18.522Z,25.50
2023-06-17T13:20:23.242Z,25.69
2023-06-17T13:25:27.893Z,26.08
2023-06-17T13:30:31.765Z,26.38
2023-06-17T13:35:35.505Z,26.39
2023-06-17T13:40:39.538Z,26.30
2023-06-17T13:45:43.336Z,26.10
2023-06-17T13:50:50.024Z,26.08
2023-06-17T13:55:53.798Z,25.92
2023-06-17T14:00:57.489Z,25.88
2023-06-17T14:06:01.028Z,25.79
2023-06-17T14:11:04.884Z,25.70
2023-06-17T14:16:09.020Z,25.65
2023-06-17T14:21:33.947Z,25.73
2023-06-17T14:26:40.834Z,25.83
2023-06-17T14:31:45.550Z,25.86
2023-06-17T14:36:49.441Z,25.88
2023-06-17T14:41:53.346Z,25.80
2023-06-17T14:46:57.299Z,25.82
2023-06-17T14:52:01.959Z,26.02
2023-06-17T14:57:06.391Z,26.11
2023-06-17T15:02:49.523Z,26.11
2023-06-17T15:07:53.249Z,25.90
2023-06-17T15:12:56.752Z,25.92
2023-06-17T15:18:00.481Z,25.95
2023-06-17T15:23:04.632Z,26.18
2023-06-17T15:28:08.662Z,26.06
2023-06-17T15:33:12.729Z,25.85
2023-06-17T15:38:19.016Z,25.62
2023-06-17T15:43:23.001Z,25.66
2023-06-17T15:48:26.495Z,25.82
2023-06-17T15:53:30.627Z,25.95
2023-06-17T15:58:34.245Z,26.11
2023-06-17T16:03:39.080Z,26.11
2023-06-17T16:08:43.710Z,25.93
2023-06-17T16:13:50.163Z,25.84
2023-06-17T16:18:56.451Z,25.61
2023-06-17T16:24:00.240Z,25.34
2023-06-17T16:29:05.632Z,25.21
2023-06-17T16:34:09.619Z,25.07
2023-06-17T16:39:13.567Z,24.97
2023-06-17T16:44:17.317Z,25.00
2023-06-17T16:49:22.490Z,25.09
2023-06-17T16:54:26.484Z,25.28
2023-06-17T16:59:30.220Z,25.22
2023-06-17T17:04:34.072Z,25.17
2023-06-17T17:09:40.166Z,24.99
2023-06-17T17:14:45.038Z,24.79
2023-06-17T17:19:49.490Z,24.73
2023-06-17T17:24:55.434Z,24.42
2023-06-17T17:29:59.056Z,24.17
2023-06-17T17:35:03.101Z,23.84
2023-06-17T17:40:07.983Z,23.51
2023-06-17T17:45:11.827Z,23.18
2023-06-17T17:50:15.552Z,22.87
2023-06-17T17:55:19.155Z,22.60
2023-06-17T18:00:24.966Z,22.34
2023-06-17T18:05:28.565Z,22.16
2023-06-17T18:10:32.468Z,22.04
2023-06-17T18:15:36.334Z,21.88
2023-06-17T18:20:40.286Z,21.72
2023-06-17T18:25:44.101Z,21.46
2023-06-17T18:30:47.746Z,21.25
2023-06-17T18:35:51.512Z,21.17
2023-06-17T18:40:55.240Z,20.99
2023-06-17T18:45:58.974Z,20.79
2023-06-17T18:51:03.265Z,20.68
2023-06-17T18:56:06.993Z,20.52
2023-06-17T19:01:10.829Z,20.46
2023-06-17T19:06:14.798Z,20.22
2023-06-17T19:11:18.507Z,20.12
2023-06-17T19:16:22.846Z,20.00
2023-06-17T19:21:26.602Z,19.93
2023-06-17T19:26:30.430Z,19.81
2023-06-17T19:31:34.354Z,19.68
2023-06-17T19:36:38.206Z,19.43
2023-06-17T19:41:41.995Z,19.32
2023-06-17T19:46:46.470Z,19.10
2023-06-17T19:51:52.529Z,18.93
2023-06-17T19:56:56.916Z,18.76
2023-06-17T20:02:01.152Z,18.78
2023-06-17T20:07:05.329Z,18.77
2023-06-17T20:12:09.472Z,18.90
2023-06-17T20:17:13.551Z,19.02
2023-06-17T20:22:17.818Z,19.08
2023-06-17T20:27:21.697Z,19.03
2023-06-17T20:32:25.719Z,19.15
2023-06-17T20:37:29.675Z,19.09
2023-06-17T20:42:33.375Z,19.04
2023-06-17T20:47:46.221Z,18.96
2023-06-17T20:52:53.716Z,18.77
2023-06-17T20:58:02.392Z,18.70
2023-06-17T21:03:06.624Z,18.65
2023-06-17T21:08:10.830Z,18.52
2023-06-17T21:13:14.797Z,18.46
2023-06-17T21:18:18.325Z,18.43
2023-06-17T21:23:21.958Z,18.40
2023-06-17T21:28:25.386Z,18.42
2023-06-17T21:33:28.990Z,18.52
2023-06-17T21:38:32.678Z,18.62
2023-06-17T21:43:36.244Z,18.65
2023-06-17T21:48:43.355Z,18.56
2023-06-17T21:53:46.814Z,18.44
2023-06-17T21:58:50.689Z,18.37
2023-06-17T22:03:54.614Z,18.19
2023-06-17T22:08:58.828Z,18.09
2023-06-17T22:14:02.759Z,17.92
2023-06-17T22:19:06.509Z,17.86
2023-06-17T22:24:12.111Z,17.82
2023-06-17T22:29:15.933Z,17.75
2023-06-17T22:34:19.573Z,17.59
2023-06-17T22:39:23.113Z,17.48
2023-06-17T22:44:26.780Z,17.35
2023-06-17T22:49:30.392Z,17.36
2023-06-17T22:54:34.150Z,17.26
2023-06-17T22:59:37.954Z,17.24
2023-06-17T23:04:43.129Z,17.16
2023-06-17T23:09:46.693Z,17.00
2023-06-17T23:14:50.194Z,16.88
2023-06-17T23:19:54.441Z,16.72
2023-06-17T23:25:02.400Z,16.62
2023-06-17T23:30:09.620Z,16.52
2023-06-17T23:35:13.497Z,16.43
2023-06-17T23:40:17.083Z,16.31
2023-06-17T23:45:39.192Z,16.23
2023-06-17T23:51:00.071Z,16.00
2023-06-17T23:56:04.663Z,15.88
